EKAH

Aarhus Airport

Aarhus, Denmark
METAR EKAH 220520Z AUTO 29010KT 9999NDV NCD 12/09 Q1011
Observed Flight Rules
Jun-22 @ 05:20 UTC (24 minutes ago)
Wind Clouds
290° at 10 knots
  • Clear skies
Temperatures Readings
Current 12°C / 54°F
Dewpoint 9°C / 48°F
Humidity 82%
Altimeter 29.85" Hg
Pressure 1011 hPa
Elevation 25
METAR EKAH 220520Z AUTO 29010KT 9999NDV NCD 12/09 Q1011
Observed Flight Rules
Jun-22 @ 05:20 UTC
(24 minutes ago)
Wind
290° at 10 knots
Clouds
  • Clear skies
Temperature Dewpoint
12°C / 54°F 9°C / 48°F
Humidity Altimeter Pressure
82% 29.85" Hg 1011 hPa